createdAt,value
2023-02-15T00:01:11.444Z,45.50
2023-02-15T00:03:49.849Z,45.60
2023-02-15T00:06:24.974Z,45.60
2023-02-15T00:09:00.552Z,45.50
2023-02-15T00:11:41.201Z,45.40
2023-02-15T00:14:22.838Z,45.40
2023-02-15T00:17:00.695Z,45.50
2023-02-15T00:19:35.776Z,45.50
2023-02-15T00:22:10.752Z,45.30
2023-02-15T00:24:45.746Z,45.50
2023-02-15T00:27:20.771Z,45.50
2023-02-15T00:29:55.719Z,45.50
2023-02-15T00:32:30.699Z,45.70
2023-02-15T00:35:06.206Z,45.70
2023-02-15T00:37:42.521Z,45.80
2023-02-15T00:40:17.517Z,45.80
2023-02-15T00:42:52.493Z,46.00
2023-02-15T00:45:27.369Z,46.20
2023-02-15T00:48:02.258Z,46.40
2023-02-15T00:50:37.129Z,46.60
2023-02-15T00:53:12.068Z,46.70
2023-02-15T00:55:47.417Z,46.80
2023-02-15T00:58:22.452Z,46.80
2023-02-15T01:01:08.448Z,46.70
2023-02-15T01:03:44.305Z,46.70
2023-02-15T01:06:19.674Z,46.70
2023-02-15T01:08:55.832Z,46.80
2023-02-15T01:11:30.870Z,46.70
2023-02-15T01:14:06.442Z,46.80
2023-02-15T01:16:41.402Z,46.90
2023-02-15T01:19:16.299Z,47.00
2023-02-15T01:21:51.199Z,46.80
2023-02-15T01:24:26.109Z,46.80
2023-02-15T01:27:01.044Z,46.90
2023-02-15T01:29:35.972Z,46.90
2023-02-15T01:32:11.225Z,47.10
2023-02-15T01:34:46.275Z,47.50
2023-02-15T01:37:21.917Z,47.10
2023-02-15T01:39:56.867Z,47.10
2023-02-15T01:42:32.323Z,47.10
2023-02-15T01:45:30.720Z,47.00
2023-02-15T01:48:18.992Z,47.10
2023-02-15T01:50:57.908Z,47.00
2023-02-15T01:53:44.220Z,47.00
2023-02-15T01:56:25.028Z,46.90
2023-02-15T01:59:05.868Z,46.80
2023-02-15T02:01:40.847Z,46.60
2023-02-15T02:04:34.958Z,46.40
2023-02-15T02:07:33.454Z,46.70
2023-02-15T02:10:11.861Z,46.40
2023-02-15T02:12:48.498Z,46.30
2023-02-15T02:15:54.192Z,46.20
2023-02-15T02:19:01.290Z,46.10
2023-02-15T02:22:03.388Z,46.20
2023-02-15T02:25:19.552Z,46.40
2023-02-15T02:28:19.407Z,46.40
2023-02-15T02:31:24.773Z,47.00
2023-02-15T02:34:21.568Z,47.60
2023-02-15T02:37:49.860Z,47.60
2023-02-15T02:40:47.248Z,47.40
2023-02-15T02:43:30.197Z,47.30
2023-02-15T02:46:35.618Z,47.40
2023-02-15T02:49:10.588Z,47.50
2023-02-15T02:51:45.534Z,47.20
2023-02-15T02:54:23.356Z,47.10
2023-02-15T02:57:02.912Z,47.20
2023-02-15T02:59:43.233Z,47.20
2023-02-15T03:02:30.242Z,47.20
2023-02-15T03:05:14.925Z,47.00
2023-02-15T03:07:52.868Z,47.00
2023-02-15T03:10:30.478Z,46.80
2023-02-15T03:13:06.811Z,46.60
2023-02-15T03:16:04.141Z,46.50
2023-02-15T03:18:53.776Z,46.30
2023-02-15T03:21:58.269Z,46.20
2023-02-15T03:25:01.783Z,46.10
2023-02-15T03:27:48.621Z,46.10
2023-02-15T03:30:25.161Z,46.70
2023-02-15T03:33:05.665Z,47.00
2023-02-15T03:36:20.122Z,47.90
2023-02-15T03:39:23.770Z,47.60
2023-02-15T03:42:10.984Z,47.90
2023-02-15T03:45:10.588Z,48.40
2023-02-15T03:47:52.066Z,48.60
2023-02-15T03:50:52.536Z,49.10
2023-02-15T03:53:28.097Z,49.70
2023-02-15T03:56:04.060Z,50.10
2023-02-15T03:58:58.025Z,50.20
2023-02-15T04:02:00.618Z,50.20
2023-02-15T04:04:40.129Z,50.00
2023-02-15T04:07:15.388Z,50.20
2023-02-15T04:10:10.425Z,50.50
2023-02-15T04:12:45.569Z,50.50
2023-02-15T04:15:39.396Z,50.60
2023-02-15T04:18:15.396Z,50.70
2023-02-15T04:21:08.885Z,51.10
2023-02-15T04:24:02.554Z,51.10
2023-02-15T04:26:40.139Z,51.30
2023-02-15T04:29:16.562Z,51.90
2023-02-15T04:31:53.505Z,52.10
2023-02-15T04:34:29.380Z,52.80
2023-02-15T04:37:05.630Z,53.50
2023-02-15T04:39:41.314Z,54.00
2023-02-15T04:42:19.221Z,54.50
2023-02-15T04:44:57.153Z,55.10
2023-02-15T04:47:32.366Z,55.30
2023-02-15T04:50:08.334Z,55.60
2023-02-15T04:52:43.610Z,55.70
2023-02-15T04:55:18.799Z,55.90
2023-02-15T04:57:53.813Z,56.10
2023-02-15T05:00:29.037Z,55.70
2023-02-15T05:03:07.028Z,55.40
2023-02-15T05:05:42.170Z,54.90
2023-02-15T05:08:17.507Z,54.60
2023-02-15T05:10:57.960Z,54.70
2023-02-15T05:13:33.379Z,54.40
2023-02-15T05:16:09.017Z,54.20
2023-02-15T05:18:48.984Z,54.20
2023-02-15T05:21:24.695Z,53.50
2023-02-15T05:23:59.797Z,53.60
2023-02-15T05:26:53.285Z,53.90
2023-02-15T05:29:28.330Z,54.10
2023-02-15T05:32:05.180Z,53.90
2023-02-15T05:34:40.213Z,53.70
2023-02-15T05:37:15.213Z,53.70
2023-02-15T05:39:50.249Z,53.70
2023-02-15T05:42:25.245Z,53.40
2023-02-15T05:45:00.498Z,53.80
2023-02-15T05:47:35.733Z,53.40
2023-02-15T05:50:12.720Z,53.00
2023-02-15T05:52:47.963Z,52.90
2023-02-15T05:55:23.064Z,52.50
2023-02-15T05:57:58.215Z,52.40
2023-02-15T06:00:33.723Z,51.90
2023-02-15T06:03:10.095Z,51.90
2023-02-15T06:05:47.857Z,51.80
2023-02-15T06:08:25.703Z,51.60
2023-02-15T06:11:05.308Z,51.80
2023-02-15T06:13:40.245Z,51.00
2023-02-15T06:16:17.222Z,50.90
2023-02-15T06:18:55.153Z,51.00
2023-02-15T06:21:31.474Z,50.90
2023-02-15T06:24:09.106Z,50.70
2023-02-15T06:26:45.487Z,50.30
2023-02-15T06:29:20.761Z,49.80
2023-02-15T06:31:56.113Z,50.40
2023-02-15T06:34:33.618Z,50.40
2023-02-15T06:37:09.509Z,50.60
2023-02-15T06:39:45.642Z,50.50
2023-02-15T06:42:21.081Z,51.10
2023-02-15T06:44:56.518Z,51.00
2023-02-15T06:47:31.857Z,50.90
2023-02-15T06:50:09.839Z,51.00
2023-02-15T06:52:45.092Z,50.90
2023-02-15T06:55:23.338Z,50.90
2023-02-15T06:57:58.861Z,50.90
2023-02-15T07:00:34.080Z,50.90
2023-02-15T07:03:10.230Z,51.10
2023-02-15T07:05:46.460Z,51.20
2023-02-15T07:08:21.583Z,51.30
2023-02-15T07:11:20.302Z,51.20
2023-02-15T07:13:55.683Z,51.20
2023-02-15T07:16:31.150Z,51.20
2023-02-15T07:19:06.362Z,51.50
2023-02-15T07:21:41.535Z,51.50
2023-02-15T07:24:17.016Z,51.20
2023-02-15T07:26:52.186Z,50.80
2023-02-15T07:29:27.546Z,50.50
2023-02-15T07:32:02.539Z,50.10
2023-02-15T07:34:41.335Z,50.00
2023-02-15T07:37:16.302Z,49.60
2023-02-15T07:39:52.663Z,49.40
2023-02-15T07:42:27.854Z,49.10
2023-02-15T07:45:02.787Z,48.80
2023-02-15T07:47:37.848Z,48.60
2023-02-15T07:50:12.908Z,48.80
2023-02-15T07:52:47.832Z,48.80
2023-02-15T07:55:23.021Z,48.80
2023-02-15T07:57:58.062Z,48.70
2023-02-15T08:00:52.996Z,48.90
2023-02-15T08:03:30.014Z,48.60
2023-02-15T08:06:05.297Z,48.60
2023-02-15T08:08:41.467Z,48.10
2023-02-15T08:11:34.380Z,47.30
2023-02-15T08:14:21.294Z,46.70
2023-02-15T08:16:57.713Z,46.90
2023-02-15T08:19:33.547Z,47.00
2023-02-15T08:22:13.180Z,47.40
2023-02-15T08:24:48.163Z,46.80
2023-02-15T08:27:27.671Z,46.80
2023-02-15T08:30:02.642Z,47.00
2023-02-15T08:32:38.660Z,46.90
2023-02-15T08:35:13.534Z,47.20
2023-02-15T08:37:48.427Z,47.10
2023-02-15T08:40:23.333Z,47.10
2023-02-15T08:42:58.206Z,47.10
2023-02-15T08:45:33.374Z,46.90
2023-02-15T08:48:08.354Z,47.70
2023-02-15T08:50:43.297Z,47.90
2023-02-15T08:53:22.442Z,47.80
2023-02-15T08:55:58.947Z,47.30
2023-02-15T08:58:35.050Z,47.00
2023-02-15T09:01:12.911Z,46.70
2023-02-15T09:03:50.763Z,46.40
2023-02-15T09:06:26.593Z,45.50
2023-02-15T09:09:01.934Z,45.00
2023-02-15T09:11:41.317Z,44.30
2023-02-15T09:14:22.560Z,43.80
2023-02-15T09:16:57.611Z,43.60
2023-02-15T09:19:32.685Z,43.40
2023-02-15T09:22:07.662Z,43.00
2023-02-15T09:24:42.620Z,42.60
2023-02-15T09:27:17.619Z,42.40
2023-02-15T09:29:52.510Z,42.30
2023-02-15T09:32:27.364Z,42.10
2023-02-15T09:35:02.276Z,41.90
2023-02-15T09:37:37.192Z,41.60
2023-02-15T09:40:15.684Z,41.10
2023-02-15T09:43:44.958Z,40.70
2023-02-15T09:46:38.791Z,40.50
2023-02-15T09:49:40.411Z,40.20
2023-02-15T09:52:49.143Z,39.70
2023-02-15T09:55:53.939Z,39.40
2023-02-15T09:59:05.017Z,38.90
2023-02-15T10:01:58.388Z,38.00
2023-02-15T10:04:51.633Z,37.50
2023-02-15T10:08:08.466Z,38.20
2023-02-15T10:11:26.748Z,37.40
2023-02-15T10:14:09.487Z,37.40
2023-02-15T10:16:57.683Z,37.40
2023-02-15T10:20:12.299Z,37.60
2023-02-15T10:23:29.791Z,37.60
2023-02-15T10:26:23.875Z,37.70
2023-02-15T10:29:10.935Z,37.80
2023-02-15T10:32:00.718Z,37.80
2023-02-15T10:34:41.282Z,37.90
2023-02-15T10:37:54.450Z,38.20
2023-02-15T10:40:46.451Z,38.30
2023-02-15T10:44:09.173Z,38.30
2023-02-15T10:47:32.094Z,38.50
2023-02-15T10:50:41.487Z,38.50
2023-02-15T10:53:33.495Z,38.50
2023-02-15T10:56:30.797Z,38.80
2023-02-15T10:59:57.048Z,38.60
2023-02-15T11:02:47.550Z,38.00
2023-02-15T11:06:11.858Z,38.00
2023-02-15T11:08:56.141Z,37.90
2023-02-15T11:11:36.098Z,37.50
2023-02-15T11:14:43.428Z,37.60
2023-02-15T11:17:25.300Z,37.00
2023-02-15T11:20:26.322Z,36.50
2023-02-15T11:23:03.611Z,35.80
2023-02-15T11:25:39.088Z,35.20
2023-02-15T11:28:38.259Z,35.30
2023-02-15T11:31:23.707Z,35.40
2023-02-15T11:34:05.796Z,35.10
2023-02-15T11:36:43.097Z,35.10
2023-02-15T11:39:21.056Z,35.30
2023-02-15T11:42:11.532Z,34.90
2023-02-15T11:45:23.802Z,34.70
2023-02-15T11:48:00.487Z,33.90
2023-02-15T11:50:35.509Z,33.20
2023-02-15T11:53:22.163Z,33.40
2023-02-15T11:55:57.338Z,33.10
2023-02-15T11:58:42.590Z,32.80
2023-02-15T12:01:32.973Z,32.90
2023-02-15T12:04:42.271Z,33.40
2023-02-15T12:08:01.888Z,33.00
2023-02-15T12:10:48.918Z,32.90
2023-02-15T12:13:24.558Z,32.30
2023-02-15T12:16:06.964Z,32.40
2023-02-15T12:18:45.531Z,32.00
2023-02-15T12:21:40.801Z,32.30
2023-02-15T12:24:26.265Z,32.90
2023-02-15T12:27:16.162Z,32.00
2023-02-15T12:29:56.519Z,32.30
2023-02-15T12:32:36.142Z,32.40
2023-02-15T12:35:27.268Z,32.60
2023-02-15T12:38:10.801Z,30.80
2023-02-15T12:41:03.246Z,30.00
2023-02-15T12:43:39.285Z,31.40
2023-02-15T12:46:27.230Z,30.40
2023-02-15T12:49:23.398Z,31.10
2023-02-15T12:52:00.746Z,31.10
2023-02-15T12:54:42.998Z,30.00
2023-02-15T12:57:33.929Z,30.80
2023-02-15T13:00:21.879Z,30.50
2023-02-15T13:02:59.007Z,30.10
2023-02-15T13:05:39.511Z,30.20
2023-02-15T13:08:32.825Z,31.50
2023-02-15T13:11:12.886Z,31.50
2023-02-15T13:13:57.258Z,31.30
2023-02-15T13:16:39.228Z,30.80
2023-02-15T13:19:24.376Z,30.40
2023-02-15T13:22:03.812Z,31.10
2023-02-15T13:24:45.425Z,30.90
2023-02-15T13:27:25.102Z,30.00
2023-02-15T13:30:05.961Z,30.70
2023-02-15T13:32:43.363Z,29.10
2023-02-15T13:35:20.018Z,28.90
2023-02-15T13:38:22.767Z,29.30
2023-02-15T13:41:10.497Z,28.80
2023-02-15T13:44:46.693Z,29.50
2023-02-15T13:47:29.181Z,28.80
2023-02-15T13:50:32.752Z,28.80
2023-02-15T13:53:07.504Z,29.50
2023-02-15T13:55:51.014Z,29.80
2023-02-15T13:59:11.048Z,29.40
2023-02-15T14:02:23.007Z,29.50
2023-02-15T14:05:44.660Z,29.10
2023-02-15T14:08:51.474Z,28.90
2023-02-15T14:11:55.364Z,28.20
2023-02-15T14:14:57.934Z,27.70
2023-02-15T14:17:54.401Z,28.10
2023-02-15T14:20:58.611Z,28.10
2023-02-15T14:24:04.056Z,27.50
2023-02-15T14:27:05.805Z,28.20
2023-02-15T14:29:58.900Z,27.80
2023-02-15T14:32:42.951Z,28.50
2023-02-15T14:35:25.758Z,28.10
2023-02-15T14:39:07.117Z,27.40
2023-02-15T14:41:54.550Z,27.10
2023-02-15T14:44:41.185Z,26.20
2023-02-15T14:47:28.140Z,26.20
2023-02-15T14:50:32.219Z,26.40
2023-02-15T14:53:38.523Z,27.60
2023-02-15T14:56:21.902Z,26.90
2023-02-15T14:59:00.787Z,26.90
2023-02-15T15:01:37.881Z,27.50
2023-02-15T15:04:46.830Z,27.70
2023-02-15T15:07:46.573Z,26.80
2023-02-15T15:10:21.652Z,26.60
2023-02-15T15:12:57.940Z,26.80
2023-02-15T15:15:32.874Z,26.90
2023-02-15T15:18:09.911Z,26.50
2023-02-15T15:20:51.592Z,27.10
2023-02-15T15:23:45.546Z,27.10
2023-02-15T15:26:28.188Z,27.10
2023-02-15T15:29:04.293Z,26.40
2023-02-15T15:31:49.548Z,26.90
2023-02-15T15:35:12.879Z,27.00
2023-02-15T15:38:30.182Z,26.70
2023-02-15T15:41:10.921Z,26.70
2023-02-15T15:44:28.891Z,26.80
2023-02-15T15:47:34.774Z,26.60
2023-02-15T15:50:17.478Z,26.40
2023-02-15T15:52:58.145Z,26.20
2023-02-15T15:55:35.271Z,26.30
2023-02-15T15:58:18.016Z,26.10
2023-02-15T16:01:07.392Z,27.00
2023-02-15T16:03:55.107Z,26.60
2023-02-15T16:06:37.318Z,26.60
2023-02-15T16:09:24.056Z,26.60
2023-02-15T16:12:02.675Z,27.30
2023-02-15T16:14:40.645Z,27.60
2023-02-15T16:17:22.474Z,27.60
2023-02-15T16:20:07.470Z,28.10
2023-02-15T16:22:42.493Z,28.20
2023-02-15T16:25:29.087Z,28.40
2023-02-15T16:28:13.632Z,28.30
2023-02-15T16:31:12.986Z,28.50
2023-02-15T16:33:48.133Z,28.70
2023-02-15T16:36:30.275Z,29.00
2023-02-15T16:39:13.247Z,29.20
2023-02-15T16:41:50.188Z,29.40
2023-02-15T16:44:25.238Z,29.70
2023-02-15T16:47:00.545Z,29.70
2023-02-15T16:49:35.692Z,29.90
2023-02-15T16:52:20.533Z,30.00
2023-02-15T16:55:03.505Z,30.30
2023-02-15T16:57:43.385Z,30.40
2023-02-15T17:00:23.626Z,30.70
2023-02-15T17:03:22.025Z,30.70
2023-02-15T17:06:00.534Z,30.90
2023-02-15T17:08:44.606Z,31.00
2023-02-15T17:11:38.184Z,31.20
2023-02-15T17:14:21.771Z,31.30
2023-02-15T17:17:23.293Z,31.40
2023-02-15T17:19:58.958Z,31.50
2023-02-15T17:22:34.088Z,32.50
2023-02-15T17:25:24.592Z,32.60
2023-02-15T17:28:00.262Z,32.60
2023-02-15T17:30:39.345Z,32.70
2023-02-15T17:33:34.539Z,33.30
2023-02-15T17:36:23.463Z,32.90
2023-02-15T17:38:59.123Z,33.00
2023-02-15T17:41:38.095Z,33.30
2023-02-15T17:44:14.941Z,33.30
2023-02-15T17:46:49.900Z,33.40
2023-02-15T17:49:34.749Z,33.40
2023-02-15T17:52:14.959Z,33.30
2023-02-15T17:55:08.155Z,33.30
2023-02-15T17:57:43.094Z,33.30
2023-02-15T18:00:37.019Z,33.30
2023-02-15T18:03:33.132Z,33.30
2023-02-15T18:06:38.483Z,33.40
2023-02-15T18:09:38.939Z,33.40
2023-02-15T18:12:31.256Z,33.50
2023-02-15T18:15:12.201Z,33.40
2023-02-15T18:17:48.279Z,33.50
2023-02-15T18:20:34.029Z,33.70
2023-02-15T18:23:15.834Z,33.70
2023-02-15T18:25:50.874Z,33.80
2023-02-15T18:28:27.833Z,33.80
2023-02-15T18:31:03.521Z,33.90
2023-02-15T18:33:49.500Z,33.90
2023-02-15T18:36:43.758Z,34.00
2023-02-15T18:39:31.668Z,34.00
2023-02-15T18:42:27.497Z,34.20
2023-02-15T18:45:21.570Z,34.50
2023-02-15T18:47:56.541Z,34.40
2023-02-15T18:50:34.939Z,34.50
2023-02-15T18:53:19.372Z,34.60
2023-02-15T18:55:54.489Z,34.70
2023-02-15T18:58:29.527Z,34.70
2023-02-15T19:01:05.717Z,34.90
2023-02-15T19:03:41.206Z,34.90
2023-02-15T19:06:23.097Z,35.00
2023-02-15T19:08:57.995Z,35.10
2023-02-15T19:11:33.160Z,35.60
2023-02-15T19:14:31.976Z,35.20
2023-02-15T19:17:19.858Z,35.40
2023-02-15T19:19:54.899Z,35.60
2023-02-15T19:22:32.031Z,35.80
2023-02-15T19:25:08.308Z,35.80
2023-02-15T19:27:44.199Z,35.80
2023-02-15T19:30:25.722Z,35.90
2023-02-15T19:33:02.751Z,35.90
2023-02-15T19:35:37.947Z,35.90
2023-02-15T19:38:19.844Z,35.90
2023-02-15T19:41:06.753Z,35.90
2023-02-15T19:43:41.901Z,35.90
2023-02-15T19:46:19.036Z,36.00
2023-02-15T19:48:54.352Z,36.20
2023-02-15T19:51:29.287Z,36.40
2023-02-15T19:54:30.937Z,36.60
2023-02-15T19:57:09.275Z,36.90
2023-02-15T19:59:44.302Z,37.10
2023-02-15T20:02:20.301Z,37.70
2023-02-15T20:04:55.314Z,37.30
2023-02-15T20:07:30.292Z,37.20
2023-02-15T20:10:25.165Z,37.10
2023-02-15T20:13:00.515Z,37.30
2023-02-15T20:15:36.449Z,37.40
2023-02-15T20:18:13.088Z,37.50
2023-02-15T20:20:52.512Z,37.80
2023-02-15T20:23:38.256Z,38.20
2023-02-15T20:26:18.347Z,38.30
2023-02-15T20:28:53.878Z,38.50
2023-02-15T20:31:29.928Z,38.60
2023-02-15T20:34:05.185Z,38.70
2023-02-15T20:36:41.600Z,38.70
2023-02-15T20:39:20.532Z,38.60
2023-02-15T20:41:55.486Z,38.70
2023-02-15T20:44:34.439Z,38.60
2023-02-15T20:47:09.414Z,38.60
2023-02-15T20:49:44.368Z,38.60
2023-02-15T20:52:20.821Z,38.70
2023-02-15T20:54:55.692Z,38.70
2023-02-15T20:57:30.728Z,38.80
2023-02-15T21:00:09.361Z,38.90
2023-02-15T21:02:55.104Z,38.90
2023-02-15T21:05:33.365Z,39.10
2023-02-15T21:08:22.174Z,39.30
2023-02-15T21:10:57.131Z,39.40
2023-02-15T21:13:35.183Z,39.60
2023-02-15T21:16:10.278Z,39.50
2023-02-15T21:18:45.409Z,39.60
2023-02-15T21:21:23.665Z,39.70
2023-02-15T21:23:58.670Z,39.80
2023-02-15T21:26:33.566Z,39.90
2023-02-15T21:29:17.066Z,40.10
2023-02-15T21:31:52.714Z,40.20
2023-02-15T21:34:27.774Z,40.30
2023-02-15T21:37:02.807Z,40.30
2023-02-15T21:39:37.786Z,40.40
2023-02-15T21:42:31.166Z,40.40
2023-02-15T21:45:36.679Z,40.40
2023-02-15T21:48:11.611Z,40.30
2023-02-15T21:51:05.633Z,39.70
2023-02-15T21:53:46.030Z,40.30
2023-02-15T21:56:22.517Z,40.20
2023-02-15T21:58:57.603Z,40.30
2023-02-15T22:01:32.924Z,40.20
2023-02-15T22:04:15.657Z,40.30
2023-02-15T22:06:50.682Z,40.40
2023-02-15T22:09:27.569Z,40.60
2023-02-15T22:12:02.602Z,40.70
2023-02-15T22:14:40.415Z,40.70
2023-02-15T22:17:20.964Z,40.80
2023-02-15T22:19:57.626Z,40.80
2023-02-15T22:22:33.504Z,40.80
2023-02-15T22:25:09.726Z,40.90
2023-02-15T22:27:46.600Z,41.00
2023-02-15T22:30:36.788Z,41.00
2023-02-15T22:33:29.066Z,41.10
2023-02-15T22:36:04.772Z,40.90
2023-02-15T22:38:39.695Z,41.50
2023-02-15T22:41:15.074Z,41.50
2023-02-15T22:43:50.482Z,41.50
2023-02-15T22:46:26.296Z,41.90
2023-02-15T22:49:01.189Z,41.60
2023-02-15T22:51:36.120Z,41.60
2023-02-15T22:54:11.163Z,41.60
2023-02-15T22:56:55.013Z,41.70
2023-02-15T22:59:34.057Z,41.90
2023-02-15T23:02:13.919Z,42.20
2023-02-15T23:04:48.890Z,42.50
2023-02-15T23:07:23.915Z,42.60
2023-02-15T23:09:58.821Z,42.50
2023-02-15T23:12:53.718Z,42.40
2023-02-15T23:15:28.634Z,42.30
2023-02-15T23:18:28.613Z,42.40
2023-02-15T23:21:20.376Z,42.40
2023-02-15T23:24:10.127Z,42.30
2023-02-15T23:26:45.831Z,42.60
2023-02-15T23:29:23.619Z,42.60
2023-02-15T23:31:58.880Z,42.50
2023-02-15T23:34:34.163Z,42.50
2023-02-15T23:37:14.382Z,42.60
2023-02-15T23:40:07.811Z,42.60
2023-02-15T23:42:46.247Z,42.80
2023-02-15T23:45:24.753Z,42.90
2023-02-15T23:48:18.745Z,42.90
2023-02-15T23:50:53.830Z,43.10
2023-02-15T23:53:28.950Z,43.20
2023-02-15T23:56:05.498Z,43.20
2023-02-15T23:58:43.565Z,43.30
